Walnut Ridge, AR (72476)

12:26 PM CST on December 03, 2016 (GMT -0600)
Walnut Ridge Regional | | Change Station

Elev 272 ft 36.12 °N, 90.93 °W | Updated 11 minutes ago

Overcast
Overcast
45 °F
Feels Like 41 °F
N
7
Wind Variable Wind from ENE

Today
High -- | Low -- °F
--% Chance of Precip.
Yesterday
High -- | Low -- °F
Precip. -- in
Pressure 30.31 in
Visibility 10.0 miles
Clouds Overcast 6000 ft
Windchill 41 °F
Dew Point 34 °F
Humidity 66%
Rainfall 0.00 in
Snow Depth Not available.
6:58 AM 4:49 PM
Waxing Crescent, 16% visible
METAR KARG 031815Z AUTO 07006KT 10SM OVC060 07/01 A3031 RMK AO1
Pressure 30.31 in
Visibility 10.0 miles
Clouds Overcast 6000 ft
Windchill 41 °F
Dew Point 34 °F
Humidity 66%
Rainfall 0.00 in
Snow Depth Not available.
6:58 AM 4:49 PM
Waxing Crescent, 16% visible
METAR KARG 031815Z AUTO 07006KT 10SM OVC060 07/01 A3031 RMK AO1

10-Day Weather Forecast

Almanac

Astronomy

Dec. 03, 2016 Rise Set
Actual Time
Civil Twilight
Nautical Twilight
Astronomical Twilight
Moon
Length of Visible Light
Length of Day
Tomorrow will be .
, % of the Moon is Illuminated

Today's Extremes

State Highs State Lows

Community

WunderPhotos

Upload Photos

1,955,457 photos uploaded!

WunderBlog® & News

Nearby

Air Quality

  Air Quality AQ Index Pollutant
Not available.

Snow Depth

Station Depth Elevation

Earthquake Activity

City Distance Mag. Time & Date
Minimum magnitude displayed is 2.5.

Coastal Water Temperatures

Place Temperature

Stations

Nearby Weather Stations

Station Location Temp. Windchill Dew Point Humidity Wind Precip. Elev Updated Type
                   

Watches & Warnings

There are currently no watches in effect.